createdAt,value
2023-02-02T00:22:44.389Z,8.90
2023-02-02T00:37:47.640Z,8.30
2023-02-02T00:52:50.728Z,7.20
2023-02-02T01:07:53.643Z,7.40
2023-02-02T01:22:56.518Z,4.40
2023-02-02T01:38:00.585Z,5.00
2023-02-02T01:53:19.431Z,10.70
2023-02-02T02:08:43.752Z,7.50
2023-02-02T02:24:50.185Z,8.10
2023-02-02T02:40:37.869Z,6.50
2023-02-02T02:56:31.593Z,6.20
2023-02-02T03:11:35.292Z,5.40
2023-02-02T03:26:37.959Z,4.50
2023-02-02T03:41:40.625Z,6.40
2023-02-02T03:56:43.068Z,7.20
2023-02-02T04:12:00.237Z,2.50
2023-02-02T04:27:17.546Z,5.70
2023-02-02T04:42:20.419Z,1.60
2023-02-02T04:57:37.975Z,3.20
2023-02-02T05:12:55.701Z,1.60
2023-02-02T05:27:58.185Z,4.10
2023-02-02T05:43:00.616Z,3.40
2023-02-02T05:58:17.636Z,4.20
2023-02-02T06:13:21.276Z,2.70
2023-02-02T06:28:24.089Z,3.00
2023-02-02T06:43:41.338Z,3.50
2023-02-02T06:58:44.033Z,3.60
2023-02-02T07:13:49.119Z,3.30
2023-02-02T07:28:52.016Z,4.90
2023-02-02T07:43:54.974Z,6.00
2023-02-02T07:58:59.801Z,4.70
2023-02-02T08:14:05.401Z,4.90
2023-02-02T08:29:08.927Z,3.10
2023-02-02T08:44:15.498Z,3.90
2023-02-02T08:59:19.314Z,4.20
2023-02-02T09:14:22.778Z,4.30
2023-02-02T09:29:25.450Z,3.40
2023-02-02T09:44:56.477Z,5.50
2023-02-02T09:59:59.572Z,4.30
2023-02-02T10:15:22.790Z,4.70
2023-02-02T10:30:44.825Z,3.40
2023-02-02T10:45:51.216Z,2.30
2023-02-02T11:01:07.390Z,5.00
2023-02-02T11:16:16.170Z,1.90
2023-02-02T11:31:35.263Z,2.00
2023-02-02T11:46:38.770Z,2.80
2023-02-02T12:01:43.704Z,4.10
2023-02-02T12:17:11.282Z,2.50
2023-02-02T12:32:57.728Z,4.40
2023-02-02T12:48:51.569Z,1.90
2023-02-02T13:20:14.916Z,3.70
2023-02-02T13:35:33.734Z,2.40
2023-02-02T13:51:12.465Z,1.90
2023-02-02T14:06:19.694Z,3.20
2023-02-02T14:21:40.907Z,1.50
2023-02-02T14:37:09.514Z,6.80
2023-02-02T14:52:23.628Z,2.60
2023-02-02T15:07:28.815Z,4.10
2023-02-02T15:22:57.001Z,2.50
2023-02-02T15:38:07.460Z,2.10
2023-02-02T16:08:35.043Z,3.20
2023-02-02T16:23:39.938Z,4.20
2023-02-02T16:38:44.848Z,3.30
2023-02-02T17:09:48.105Z,3.80
2023-02-02T17:24:53.566Z,4.60
2023-02-02T17:39:58.071Z,5.20
2023-02-02T17:55:19.119Z,5.70
2023-02-02T18:10:27.485Z,3.30
2023-02-02T18:25:35.784Z,6.60
2023-02-02T18:40:40.702Z,5.80
2023-02-02T18:55:59.023Z,3.00
2023-02-02T19:27:43.659Z,5.00
2023-02-02T19:58:57.933Z,11.40
2023-02-02T20:14:19.067Z,8.50
2023-02-02T20:29:32.759Z,8.30
2023-02-02T20:44:39.012Z,18.00
2023-02-02T20:59:44.928Z,24.40
2023-02-02T21:14:49.257Z,18.90
2023-02-02T21:30:12.488Z,24.60
2023-02-02T21:45:36.362Z,12.40
2023-02-02T22:00:42.383Z,16.30
2023-02-02T22:15:49.430Z,16.00
2023-02-02T22:30:56.523Z,14.00
2023-02-02T23:01:18.633Z,14.90
2023-02-02T23:16:22.883Z,16.30
2023-02-02T23:31:27.169Z,17.50
